This is the latest recevied weather packets stored in our database for station/object K9MJM-1. If no packets are shown the sender has not sent any weather packets the latest 1 day(s).
| Time | Temp. | Humidity | Pressure | Rain* | Wind** | Luminosity | Snow |
|---|---|---|---|---|---|---|---|
| 1778102679 | 18.33° C | 80% | 1017 hPa | 0 mm | 0 m/s | - | - |
| 1778102319 | 18.89° C | 80% | 1016.7 hPa | 0 mm | 0.45 m/s, 113° | - | - |
| 1778101899 | 18.89° C | 79% | 1016.6 hPa | 0 mm | 0.45 m/s, 95° | - | - |
| 1778101779 | 18.89° C | 76% | 1016.7 hPa | 0 mm | 0.89 m/s, 117° | - | - |
| 1778100999 | 19.44° C | 73% | 1016.4 hPa | 0 mm | 0 m/s | - | - |
| 1778100879 | 20° C | 71% | 1016.1 hPa | 0 mm | 0.45 m/s, 104° | - | - |
| 1778100759 | 20° C | 71% | 1016.1 hPa | 0 mm | 0.45 m/s, 104° | - | - |
| 1778100579 | 20° C | 70% | 1016.1 hPa | 0 mm | 0.45 m/s, 96° | - | - |
| 1778100519 | 20° C | 70% | 1016.1 hPa | 0 mm | 0.45 m/s, 96° | - | - |
| 1778100459 | 20° C | 70% | 1016.1 hPa | 0 mm | 0.45 m/s, 96° | - | - |
| 1778100279 | 20.56° C | 70% | 1016.1 hPa | 0 mm | 0 m/s | - | - |
| 1778099440 | 20° C | 68% | 1015.9 hPa | 0 mm | 0 m/s | - | - |
| 1778099199 | 20° C | 68% | 1015.9 hPa | 0 mm | 0 m/s | - | - |
| 1778098899 | 20° C | 68% | 1015.9 hPa | 0 mm | 0.45 m/s, 93° | - | - |
| 1778098299 | 20.56° C | 69% | 1016.2 hPa | 0 mm | 0 m/s | - | - |
| 1778097759 | 20.56° C | 69% | 1016.3 hPa | 0 mm | 0 m/s | - | - |
| 1778097459 | 20.56° C | 67% | 1016.7 hPa | 0 mm | 2.24 m/s, 122° | - | - |
| 1778096799 | 20.56° C | 67% | 1016.5 hPa | 0 mm | 1.34 m/s, 71° | - | - |
| 1778096319 | 20.56° C | 68% | 1016.6 hPa | 0 mm | 0 m/s | - | - |
| 1778096199 | 20.56° C | 68% | 1016.6 hPa | 0 mm | 0 m/s | - | - |
| 1778095899 | 20.56° C | 66% | 1016.8 hPa | 0 mm | 0.89 m/s, 81° | - | - |
| 1778095119 | 20° C | 66% | 1016.4 hPa | 0 mm | 0 m/s | - | - |
| 1778094519 | 20.56° C | 68% | 1016.5 hPa | 0 mm | 0.89 m/s, 92° | - | - |
| 1778094459 | 20.56° C | 68% | 1016.5 hPa | 0 mm | 0.89 m/s, 92° | - | - |
| 1778093979 | 20.56° C | 69% | 1016.5 hPa | 0 mm | 0.45 m/s, 94° | - | - |
* Rain latest hour (hover to see other rain measurements)
** Current wind speed in m/s (hover to see current wind gust speed)